Time;durP1;ratioP1;P1;durP2;ratioP2;P2;SDS_P1;SDS_P2;PMS_P1;PMS_P2;Temp;Humidity;BMP_temperature;BMP_pressure;BME280_temperature;BME280_humidity;BME280_pressure;Samples;Min_cycle;Max_cycle;Signal;HPM_P1;HPM_P2
2022/06/28 00:02:05;;;;;;;16.92;9.45;;;;;;;17.22;93.81;101319.63;6001144;28;20269;-66
2022/06/28 00:05:01;;;;;;;20.27;10.17;;;;;;;17.13;93.37;101323.34;5999675;28;20544;-65
2022/06/28 00:07:56;;;;;;;21.40;10.55;;;;;;;17.06;92.58;101306.31;6002375;28;20681;-65
2022/06/28 00:10:51;;;;;;;25.77;12.00;;;;;;;17.02;93.07;101329.91;6001928;28;20034;-65
2022/06/28 00:13:47;;;;;;;22.53;11.33;;;;;;;17.03;93.90;101333.44;6001752;28;20051;-65
2022/06/28 00:16:42;;;;;;;27.73;12.63;;;;;;;16.99;93.49;101329.41;6002733;28;20032;-65
2022/06/28 00:19:37;;;;;;;22.20;12.10;;;;;;;17.18;93.91;101343.25;6000812;28;20100;-65
2022/06/28 00:22:33;;;;;;;23.67;11.77;;;;;;;16.99;92.79;101345.50;5999159;28;20281;-65
2022/06/28 00:25:28;;;;;;;29.13;12.40;;;;;;;16.84;92.79;101352.59;5994589;28;20275;-65
2022/06/28 00:28:23;;;;;;;24.73;12.77;;;;;;;16.91;93.43;101356.25;5993182;28;20035;-65
2022/06/28 00:31:21;;;;;;;21.97;11.27;;;;;;;16.96;93.06;101361.94;6001783;28;20053;-65
2022/06/28 00:34:16;;;;;;;21.65;12.30;;;;;;;17.04;93.12;101372.66;6000775;28;20324;-65
2022/06/28 00:37:11;;;;;;;21.77;11.77;;;;;;;16.85;93.34;101370.34;6002502;28;20023;-65
2022/06/28 00:40:07;;;;;;;19.40;11.10;;;;;;;16.77;92.59;101379.19;6007875;28;20038;-65
2022/06/28 00:43:03;;;;;;;19.35;10.95;;;;;;;16.77;92.19;101373.03;6005383;28;20030;-65
2022/06/28 00:45:58;;;;;;;22.93;11.83;;;;;;;16.81;92.06;101387.75;6010260;28;20064;-65
2022/06/28 00:48:54;;;;;;;21.47;12.10;;;;;;;16.75;92.13;101380.38;6002187;28;20337;-65
2022/06/28 00:51:49;;;;;;;23.48;11.90;;;;;;;16.71;92.83;101379.06;6003435;28;20305;-65
2022/06/28 00:54:44;;;;;;;22.60;10.77;;;;;;;16.79;92.78;101382.56;6002101;28;20026;-65
2022/06/28 00:57:40;;;;;;;19.23;10.88;;;;;;;16.77;92.83;101383.75;6008768;28;20061;-65
2022/06/28 01:00:41;;;;;;;18.13;9.83;;;;;;;16.72;91.87;101391.44;6009477;28;20092;-65
2022/06/28 01:03:37;;;;;;;20.85;9.85;;;;;;;16.72;91.44;101388.75;6008538;28;20382;-65
2022/06/28 01:06:32;;;;;;;14.68;8.93;;;;;;;16.64;91.37;101390.44;6009470;28;20030;-65
2022/06/28 01:09:27;;;;;;;15.43;9.02;;;;;;;16.58;92.02;101380.41;6001074;28;20066;-65
2022/06/28 01:12:22;;;;;;;14.83;9.03;;;;;;;16.54;92.08;101379.09;6009669;28;20482;-65
2022/06/28 01:15:18;;;;;;;14.57;9.23;;;;;;;16.51;93.01;101379.38;6000430;28;20038;-65
2022/06/28 01:18:13;;;;;;;17.50;9.37;;;;;;;16.41;93.07;101386.75;6004225;28;20078;-65
2022/06/28 01:21:12;;;;;;;15.77;9.93;;;;;;;16.35;93.12;101389.25;5998149;28;20282;-65
2022/06/28 01:24:07;;;;;;;15.18;8.93;;;;;;;16.35;93.22;101384.75;6002970;28;20454;-65
2022/06/28 01:27:04;;;;;;;16.45;8.82;;;;;;;16.37;92.86;101381.88;6010049;28;20034;-65
2022/06/28 01:29:59;;;;;;;15.45;7.57;;;;;;;16.27;92.19;101390.09;6003357;28;20085;-65
2022/06/28 01:32:55;;;;;;;13.10;7.83;;;;;;;16.19;92.68;101392.75;6004990;28;20034;-65
2022/06/28 01:35:51;;;;;;;14.63;8.00;;;;;;;16.14;92.49;101384.41;6007868;28;20047;-65
2022/06/28 01:38:46;;;;;;;15.63;8.13;;;;;;;16.13;93.11;101389.91;6008183;28;20045;-65
2022/06/28 01:41:43;;;;;;;13.70;7.18;;;;;;;16.11;92.29;101384.72;6009250;28;20410;-65
2022/06/28 01:44:39;;;;;;;12.63;7.65;;;;;;;16.04;92.91;101387.22;6007039;28;20126;-67
2022/06/28 01:47:35;;;;;;;13.25;7.82;;;;;;;15.94;92.47;101396.38;6006043;28;20389;-65
2022/06/28 01:50:31;;;;;;;13.93;8.20;;;;;;;15.97;91.91;101385.38;6005570;28;20066;-65
2022/06/28 01:53:26;;;;;;;14.23;8.32;;;;;;;15.91;91.43;101389.53;6004700;28;20027;-65
2022/06/28 01:56:21;;;;;;;14.60;8.27;;;;;;;15.95;90.15;101392.72;6005671;28;20046;-65
2022/06/28 01:59:17;;;;;;;15.57;8.90;;;;;;;15.81;89.20;101375.47;6004841;28;20298;-65
2022/06/28 02:02:12;;;;;;;15.80;8.63;;;;;;;15.67;89.21;101388.63;5994726;28;20121;-65
2022/06/28 02:05:08;;;;;;;13.17;8.57;;;;;;;15.52;89.73;101396.41;5992751;28;20077;-65
2022/06/28 02:08:03;;;;;;;16.42;9.48;;;;;;;15.43;89.85;101398.22;6003743;28;20027;-65
2022/06/28 02:11:01;;;;;;;16.42;8.90;;;;;;;15.30;89.74;101402.31;6004393;28;20262;-65
2022/06/28 02:13:56;;;;;;;16.95;9.13;;;;;;;15.22;89.93;101410.28;5991915;28;20483;-65
2022/06/28 02:16:52;;;;;;;14.50;8.67;;;;;;;15.16;90.10;101409.09;6004667;28;20039;-65
2022/06/28 02:19:47;;;;;;;17.87;9.13;;;;;;;15.04;90.19;101394.31;6005283;28;20054;-65
2022/06/28 02:22:42;;;;;;;14.13;8.20;;;;;;;14.99;90.94;101406.47;6002828;28;20077;-65
2022/06/28 02:25:38;;;;;;;14.73;8.30;;;;;;;14.97;91.17;101403.13;6008949;28;20034;-65
2022/06/28 02:28:33;;;;;;;17.25;8.77;;;;;;;14.96;91.69;101407.63;6002055;28;20041;-65
2022/06/28 02:31:29;;;;;;;13.57;7.43;;;;;;;14.91;91.97;101412.59;6003955;28;20046;-65
2022/06/28 02:40:52;;;;;;;18.05;9.82;;;;;;;14.80;91.96;101400.34;6003485;28;20035;-65
2022/06/28 02:43:47;;;;;;;17.00;9.03;;;;;;;14.86;92.19;101413.09;6003815;28;20395;-65
2022/06/28 02:46:42;;;;;;;19.20;9.57;;;;;;;14.93;91.44;101410.59;5992889;28;20042;-65
2022/06/28 02:49:39;;;;;;;17.60;9.85;;;;;;;14.86;91.74;101409.56;6004415;28;20048;-65
2022/06/28 02:52:35;;;;;;;16.15;10.23;;;;;;;14.81;91.24;101402.00;6000585;28;20031;-65
2022/06/28 02:55:30;;;;;;;16.25;9.55;;;;;;;14.85;91.54;101403.38;6002803;28;20089;-64
2022/06/28 02:58:25;;;;;;;23.38;10.70;;;;;;;14.93;91.19;101410.59;6000181;28;20467;-65
2022/06/28 03:01:21;;;;;;;20.03;9.00;;;;;;;14.96;90.84;101409.44;5996651;28;20031;-65
2022/06/28 03:04:16;;;;;;;19.23;8.97;;;;;;;15.11;90.85;101419.38;5993298;28;20286;-65
2022/06/28 03:07:11;;;;;;;16.43;9.07;;;;;;;15.15;90.51;101435.97;6002988;28;20069;-65
2022/06/28 03:10:08;;;;;;;12.50;7.50;;;;;;;15.20;90.54;101429.16;6003099;28;20053;-65
2022/06/28 03:13:03;;;;;;;13.90;7.78;;;;;;;15.13;89.35;101422.78;6003375;28;20028;-65
2022/06/28 03:15:58;;;;;;;14.10;8.30;;;;;;;15.13;89.29;101425.44;6004219;28;20066;-65
2022/06/28 03:18:54;;;;;;;11.20;7.47;;;;;;;15.13;89.65;101427.28;5998958;28;20267;-65
2022/06/28 03:21:49;;;;;;;12.07;7.80;;;;;;;15.21;89.23;101446.88;6001549;28;20047;-65
2022/06/28 03:24:46;;;;;;;13.10;7.15;;;;;;;15.12;89.42;101461.16;5992180;28;20031;-65
2022/06/28 03:27:42;;;;;;;13.52;8.00;;;;;;;15.01;89.11;101450.72;6004845;28;20086;-65
2022/06/28 03:30:37;;;;;;;12.43;7.67;;;;;;;14.99;89.69;101460.75;6003411;28;20046;-65
2022/06/28 03:33:32;;;;;;;14.17;7.57;;;;;;;14.99;89.91;101458.06;5994828;28;20027;-65
2022/06/28 03:36:28;;;;;;;12.23;6.97;;;;;;;15.04;90.14;101471.78;6002808;28;20030;-65
2022/06/28 03:39:23;;;;;;;15.00;8.48;;;;;;;14.85;89.91;101455.94;6002637;28;20114;-65
2022/06/28 03:42:19;;;;;;;11.53;7.13;;;;;;;15.00;90.34;101485.63;5993745;28;20096;-65
2022/06/28 03:45:14;;;;;;;16.00;7.60;;;;;;;14.78;89.98;101473.59;6003645;28;20398;-64
2022/06/28 03:48:09;;;;;;;17.33;8.27;;;;;;;14.70;90.31;101481.53;5998836;28;20450;-65
2022/06/28 03:51:05;;;;;;;13.73;8.53;;;;;;;14.71;90.17;101481.38;5999328;28;20470;-65
2022/06/28 03:54:00;;;;;;;14.25;8.18;;;;;;;14.68;91.03;101481.69;6002650;28;20066;-66
2022/06/28 03:56:55;;;;;;;15.17;8.77;;;;;;;14.69;90.30;101494.03;5999286;28;20046;-65
2022/06/28 03:59:51;;;;;;;13.60;7.03;;;;;;;14.79;91.06;101501.97;6003015;28;20034;-65
2022/06/28 04:02:46;;;;;;;13.77;8.88;;;;;;;14.76;90.62;101508.44;5994596;28;20035;-65
2022/06/28 04:05:42;;;;;;;16.27;7.97;;;;;;;14.68;90.51;101507.53;6002403;28;20035;-65
2022/06/28 04:08:37;;;;;;;14.73;8.20;;;;;;;14.74;90.57;101512.25;6003111;28;20301;-65
2022/06/28 04:11:32;;;;;;;14.70;8.67;;;;;;;14.52;90.69;101505.56;5998194;28;20282;-67
2022/06/28 04:14:28;;;;;;;12.30;7.83;;;;;;;14.56;90.37;101522.13;6001360;28;20022;-65
2022/06/28 04:17:23;;;;;;;14.97;7.70;;;;;;;14.45;91.33;101522.34;6000906;28;20125;-67
2022/06/28 04:20:18;;;;;;;16.00;8.63;;;;;;;14.50;91.27;101525.38;5991407;28;20284;-65
2022/06/28 04:23:14;;;;;;;12.68;7.70;;;;;;;14.58;90.79;101528.97;6002571;28;20122;-65
2022/06/28 04:26:09;;;;;;;14.53;8.17;;;;;;;14.56;90.58;101530.13;6000743;28;20077;-65
2022/06/28 04:29:04;;;;;;;14.10;8.40;;;;;;;14.64;90.69;101532.88;6002513;28;20034;-65
2022/06/28 04:32:00;;;;;;;14.80;9.03;;;;;;;14.82;90.48;101536.38;6011935;28;20500;-65
2022/06/28 04:34:56;;;;;;;14.03;8.40;;;;;;;15.01;89.08;101544.22;6001144;28;20062;-67
2022/06/28 04:37:52;;;;;;;14.18;7.85;;;;;;;15.12;88.86;101533.28;6002348;28;20030;-68
2022/06/28 04:40:47;;;;;;;13.60;8.07;;;;;;;15.24;87.99;101542.75;5997676;28;20506;-65
2022/06/28 04:43:42;;;;;;;12.43;7.30;;;;;;;15.26;87.62;101545.25;5996822;28;20106;-65
2022/06/28 04:46:38;;;;;;;14.57;7.47;;;;;;;15.27;87.93;101552.28;5999593;28;20046;-65
2022/06/28 04:49:34;;;;;;;13.05;8.27;;;;;;;15.15;87.16;101548.19;6002482;28;20027;-67
2022/06/28 04:52:29;;;;;;;16.00;7.90;;;;;;;14.95;87.65;101539.50;6000455;28;20108;-65
2022/06/28 04:55:24;;;;;;;12.70;7.73;;;;;;;14.97;88.54;101558.03;6001264;28;20042;-65
2022/06/28 04:58:20;;;;;;;11.85;8.07;;;;;;;14.93;88.27;101564.69;5999585;28;20036;-65
2022/06/28 05:01:15;;;;;;;12.67;7.17;;;;;;;15.22;87.70;101558.09;6001428;28;20477;-66
2022/06/28 05:04:11;;;;;;;13.38;7.20;;;;;;;15.46;87.62;101552.94;5991574;28;20039;-65
2022/06/28 05:07:06;;;;;;;13.07;7.50;;;;;;;15.92;84.98;101550.88;5996561;28;20039;-65
2022/06/28 05:10:03;;;;;;;17.83;7.75;;;;;;;16.10;83.11;101551.63;5999710;28;20035;-66
2022/06/28 05:12:58;;;;;;;10.55;6.88;;;;;;;16.32;82.87;101561.75;5995871;28;20050;-66
2022/06/28 05:15:54;;;;;;;13.23;7.30;;;;;;;16.23;82.91;101557.34;6000215;28;20038;-68
2022/06/28 05:18:49;;;;;;;11.53;7.00;;;;;;;16.21;83.03;101547.81;5997936;28;20129;-66
2022/06/28 05:21:44;;;;;;;11.80;7.17;;;;;;;16.06;83.32;101555.63;5995340;28;20278;-65
2022/06/28 05:24:40;;;;;;;12.93;7.17;;;;;;;16.01;83.92;101557.94;5993829;28;20398;-66
2022/06/28 05:27:35;;;;;;;14.77;8.27;;;;;;;15.89;83.88;101560.06;6005311;28;20031;-67
2022/06/28 05:30:30;;;;;;;13.63;7.20;;;;;;;16.00;82.94;101556.28;6005258;28;20285;-65
2022/06/28 05:33:26;;;;;;;16.55;8.23;;;;;;;15.99;83.04;101551.91;6006450;28;20073;-65
2022/06/28 05:36:21;;;;;;;14.47;7.07;;;;;;;16.00;82.96;101561.63;6005657;28;20490;-65
2022/06/28 05:39:16;;;;;;;12.20;6.40;;;;;;;16.38;82.65;101549.56;6006304;28;20348;-65
2022/06/28 05:42:14;;;;;;;11.57;7.38;;;;;;;16.27;80.65;101553.38;6005405;28;20042;-67
2022/06/28 05:45:09;;;;;;;13.73;8.18;;;;;;;16.33;80.34;101547.38;6005172;28;20418;-67
2022/06/28 05:48:05;;;;;;;15.50;7.53;;;;;;;16.41;81.25;101544.72;6004425;28;20042;-65
2022/06/28 05:51:00;;;;;;;11.98;7.55;;;;;;;16.76;79.91;101551.69;6004872;28;20474;-65
2022/06/28 05:53:56;;;;;;;11.98;7.15;;;;;;;17.04;78.85;101542.28;5995759;28;20038;-65
2022/06/28 05:56:51;;;;;;;12.23;6.90;;;;;;;17.12;78.44;101544.97;5991650;28;20062;-65
2022/06/28 05:59:47;;;;;;;12.20;6.70;;;;;;;17.33;76.37;101547.16;6003816;28;20070;-65
2022/06/28 06:02:42;;;;;;;12.27;7.43;;;;;;;17.28;77.23;101549.50;5997531;28;20121;-65
2022/06/28 06:05:37;;;;;;;12.27;6.73;;;;;;;16.84;77.32;101543.66;5989382;28;20342;-65
2022/06/28 06:08:35;;;;;;;10.27;6.13;;;;;;;17.03;77.83;101553.19;6005047;28;20274;-65
2022/06/28 06:11:30;;;;;;;13.10;7.22;;;;;;;17.03;76.19;101551.34;5997124;28;20043;-65
2022/06/28 06:14:26;;;;;;;12.27;6.73;;;;;;;17.25;76.01;101548.00;6005685;28;20033;-65
2022/06/28 06:17:21;;;;;;;11.93;6.50;;;;;;;18.45;72.70;101556.69;5997636;28;20125;-65
2022/06/28 06:20:16;;;;;;;11.45;5.55;;;;;;;18.93;70.42;101560.13;6009330;28;20034;-67
2022/06/28 06:23:12;;;;;;;8.87;6.10;;;;;;;18.95;68.14;101558.91;6005734;28;20041;-65
2022/06/28 06:26:07;;;;;;;9.60;6.83;;;;;;;19.17;68.63;101569.81;6004157;28;20027;-65
2022/06/28 06:29:02;;;;;;;14.03;7.17;;;;;;;19.42;67.92;101563.25;6004717;28;20069;-65
2022/06/28 06:31:58;;;;;;;10.60;7.43;;;;;;;19.55;67.96;101572.38;6004480;28;20035;-65
2022/06/28 06:34:53;;;;;;;12.37;7.83;;;;;;;18.79;68.96;101580.53;6004832;28;20039;-65
2022/06/28 06:37:48;;;;;;;10.70;7.57;;;;;;;18.48;70.48;101581.56;6003843;28;20286;-67
2022/06/28 06:40:44;;;;;;;11.90;7.77;;;;;;;18.89;70.80;101575.75;6004090;28;20054;-68
2022/06/28 06:43:39;;;;;;;9.90;7.57;;;;;;;18.62;70.48;101581.63;6004942;28;20682;-67
2022/06/28 06:46:36;;;;;;;12.20;8.27;;;;;;;18.25;73.03;101592.22;6004910;28;20030;-64
2022/06/28 06:49:31;;;;;;;12.20;7.28;;;;;;;18.23;72.97;101596.94;6004252;28;20027;-67
2022/06/28 06:52:26;;;;;;;15.90;7.93;;;;;;;17.82;73.39;101601.59;6003069;28;20046;-67
2022/06/28 06:55:22;;;;;;;13.77;7.50;;;;;;;17.69;72.69;101586.00;6001828;28;20042;-67
2022/06/28 06:58:17;;;;;;;14.15;7.53;;;;;;;18.16;73.33;101595.94;6003871;28;20502;-67
2022/06/28 07:01:12;;;;;;;13.07;7.55;;;;;;;18.17;72.84;101594.94;6002575;28;20050;-65
2022/06/28 07:04:08;;;;;;;8.43;6.80;;;;;;;18.65;71.24;101594.72;5988889;28;20510;-65
2022/06/28 07:07:03;;;;;;;13.02;7.30;;;;;;;19.09;68.55;101596.78;6021355;28;20281;-67
2022/06/28 07:10:00;;;;;;;11.23;5.88;;;;;;;19.72;65.64;101599.13;6014158;28;20693;-65
2022/06/28 07:12:55;;;;;;;10.00;5.72;;;;;;;20.06;62.65;101585.94;6024185;28;20046;-65
2022/06/28 07:15:52;;;;;;;8.73;5.17;;;;;;;20.98;63.13;101582.50;6024068;28;20023;-65
2022/06/28 07:18:48;;;;;;;11.00;5.20;;;;;;;21.01;61.51;101582.13;6017623;28;20033;-65
2022/06/28 07:21:44;;;;;;;8.73;5.07;;;;;;;21.05;59.80;101590.66;6023119;28;20038;-65
2022/06/28 07:24:39;;;;;;;8.82;4.80;;;;;;;20.19;61.24;101591.53;6021634;28;20365;-65
2022/06/28 07:27:35;;;;;;;7.22;3.90;;;;;;;20.39;61.26;101607.97;6022418;28;20502;-66
2022/06/28 07:30:30;;;;;;;9.57;4.53;;;;;;;20.58;59.14;101604.66;6020521;28;20093;-66
2022/06/28 07:33:25;;;;;;;7.73;4.50;;;;;;;20.95;59.50;101599.09;6020881;28;20052;-65
2022/06/28 07:36:21;;;;;;;6.93;4.33;;;;;;;21.44;56.61;101599.16;6021605;28;20347;-65
2022/06/28 07:39:18;;;;;;;8.02;3.92;;;;;;;20.51;58.02;101603.78;6005617;28;20277;-65
2022/06/28 07:42:13;;;;;;;7.07;4.18;;;;;;;20.24;59.36;101588.25;6016859;28;20042;-66
2022/06/28 07:45:09;;;;;;;11.07;4.25;;;;;;;20.63;59.40;101594.16;6022022;28;20050;-65
2022/06/28 07:48:05;;;;;;;5.07;3.03;;;;;;;20.68;58.31;101591.75;6005318;28;20067;-65
2022/06/28 07:54:14;;;;;;;5.18;2.80;;;;;;;21.48;56.06;101599.59;6017488;28;20031;-65
2022/06/28 07:57:09;;;;;;;5.87;3.23;;;;;;;21.04;55.30;101594.38;6018296;28;20050;-65
2022/06/28 08:00:06;;;;;;;4.73;2.73;;;;;;;20.98;54.88;101595.97;6014608;28;20347;-66
2022/06/28 08:03:02;;;;;;;7.53;2.53;;;;;;;20.90;55.44;101606.09;6018713;28;20058;-65
2022/06/28 08:05:57;;;;;;;5.70;2.20;;;;;;;20.75;55.98;101616.91;6016065;28;20041;-65
2022/06/28 08:08:52;;;;;;;6.00;1.93;;;;;;;20.83;54.97;101616.78;6016158;28;20031;-64
2022/06/28 08:11:47;;;;;;;5.80;2.57;;;;;;;21.34;53.65;101612.97;6022194;28;20065;-65
2022/06/28 08:14:43;;;;;;;6.33;2.43;;;;;;;21.58;52.11;101606.31;6009357;28;20733;-65
2022/06/28 08:17:39;;;;;;;6.25;1.83;;;;;;;21.32;53.96;101612.34;6016780;28;20044;-65
2022/06/28 08:20:34;;;;;;;5.10;2.13;;;;;;;21.03;53.78;101623.25;6018656;28;20037;-65
2022/06/28 08:23:29;;;;;;;6.27;1.67;;;;;;;21.94;52.55;101608.88;6018291;28;20037;-66
2022/06/28 08:26:24;;;;;;;4.70;2.00;;;;;;;22.41;50.48;101603.53;6022478;28;20288;-66
2022/06/28 08:29:21;;;;;;;5.90;1.87;;;;;;;23.14;48.46;101604.59;6015448;28;20041;-66
2022/06/28 08:32:17;;;;;;;4.55;1.77;;;;;;;22.47;47.77;101607.31;6010577;28;20038;-65
2022/06/28 08:35:13;;;;;;;6.18;1.85;;;;;;;22.34;47.93;101610.78;6021287;28;20490;-65
2022/06/28 08:38:08;;;;;;;9.47;2.00;;;;;;;22.20;48.61;101609.06;6019966;28;20037;-65
2022/06/28 08:41:05;;;;;;;4.60;1.90;;;;;;;22.40;48.29;101606.44;6019490;28;20270;-65
2022/06/28 08:44:01;;;;;;;5.60;1.83;;;;;;;22.42;47.71;101594.38;6022237;28;20092;-65
2022/06/28 08:46:56;;;;;;;5.20;1.60;;;;;;;22.40;47.77;101599.16;6012010;28;20586;-65
2022/06/28 08:49:57;;;;;;;4.93;1.63;;;;;;;22.92;47.87;101605.81;6021300;28;20035;-66
2022/06/28 08:52:53;;;;;;;3.55;1.35;;;;;;;22.47;47.08;101596.50;6024158;28;20034;-65
2022/06/28 08:55:50;;;;;;;3.85;1.50;;;;;;;22.40;49.07;101607.28;6023892;28;20030;-66
2022/06/28 08:58:45;;;;;;;4.53;1.70;;;;;;;22.72;48.66;101604.94;6026075;28;20065;-65
2022/06/28 09:01:41;;;;;;;5.07;1.57;;;;;;;22.26;47.34;101610.94;6029679;28;20505;-65
2022/06/28 09:04:36;;;;;;;4.45;1.45;;;;;;;22.60;48.78;101609.22;6029820;28;20034;-65
2022/06/28 09:07:32;;;;;;;3.67;1.60;;;;;;;23.35;45.48;101612.53;6030452;28;20430;-65
2022/06/28 09:10:27;;;;;;;5.40;1.80;;;;;;;23.47;45.04;101602.78;6028250;28;20038;-66
2022/06/28 09:13:23;;;;;;;3.03;1.30;;;;;;;23.43;42.50;101600.66;6030157;28;20113;-66
2022/06/28 09:16:19;;;;;;;3.23;1.30;;;;;;;22.84;45.04;101578.94;6043360;28;20683;-66
2022/06/28 09:19:14;;;;;;;2.67;1.45;;;;;;;22.76;46.38;101600.78;6030476;28;20269;-66
2022/06/28 09:22:27;;;;;;;5.33;1.70;;;;;;;22.06;49.77;101604.63;6029158;28;20042;-66
2022/06/28 09:25:29;;;;;;;3.03;1.40;;;;;;;22.21;51.01;101601.75;6028358;28;20497;-66
2022/06/28 09:28:28;;;;;;;7.18;1.48;;;;;;;22.25;49.43;101614.69;6028844;28;20445;-66
2022/06/28 09:31:26;;;;;;;2.88;1.20;;;;;;;22.81;46.28;101603.69;6029428;28;20038;-66
2022/06/28 09:34:21;;;;;;;3.28;1.50;;;;;;;21.23;47.13;101605.41;6029901;28;20049;-65
2022/06/28 09:37:18;;;;;;;3.67;1.47;;;;;;;21.29;48.71;101604.63;6028974;28;20038;-66
2022/06/28 09:40:16;;;;;;;4.10;1.40;;;;;;;21.57;49.05;101604.66;6028731;28;20035;-65
2022/06/28 09:43:15;;;;;;;1.90;1.35;;;;;;;22.20;46.27;101600.94;6029402;28;20052;-66
2022/06/28 09:46:10;;;;;;;4.00;1.30;;;;;;;22.64;47.08;101607.81;6027929;28;20113;-66
2022/06/28 09:49:08;;;;;;;4.23;1.37;;;;;;;22.84;46.47;101589.75;6029342;28;20044;-66
2022/06/28 09:52:03;;;;;;;3.95;1.38;;;;;;;23.46;41.83;101592.13;6035534;28;20041;-66
2022/06/28 09:54:59;;;;;;;5.18;1.40;;;;;;;23.61;42.53;101574.66;6020351;28;20026;-66
2022/06/28 09:57:55;;;;;;;7.35;1.42;;;;;;;23.70;41.11;101592.31;6018428;28;20426;-68
2022/06/28 10:00:51;;;;;;;5.85;1.45;;;;;;;23.84;41.77;101593.13;6034909;28;20041;-65
2022/06/28 10:03:49;;;;;;;3.65;1.27;;;;;;;23.96;42.13;101594.16;6028916;28;20042;-66
2022/06/28 10:06:45;;;;;;;4.30;1.50;;;;;;;23.36;42.12;101587.13;6027097;28;20092;-66
2022/06/28 10:09:41;;;;;;;4.38;1.75;;;;;;;22.31;43.85;101592.25;6020919;28;20047;-66
2022/06/28 10:15:57;;;;;;;2.20;1.23;;;;;;;23.22;42.10;101585.44;6028653;28;20054;-66
2022/06/28 10:18:54;;;;;;;4.28;1.40;;;;;;;23.17;44.84;101582.53;6026838;28;20184;-66
2022/06/28 10:21:52;;;;;;;5.65;1.40;;;;;;;22.92;45.01;101594.97;6042753;28;20085;-66
2022/06/28 10:24:50;;;;;;;4.47;1.55;;;;;;;22.94;47.08;101590.19;6028422;28;20039;-66
2022/06/28 10:27:48;;;;;;;4.82;1.50;;;;;;;23.58;45.33;101588.59;6028433;28;20034;-66
2022/06/28 10:30:43;;;;;;;3.03;1.50;;;;;;;23.69;40.97;101581.72;6027301;28;20443;-65
2022/06/28 10:33:42;;;;;;;3.10;1.40;;;;;;;24.17;40.39;101576.81;6026987;28;20048;-66
2022/06/28 10:36:51;;;;;;;2.83;1.50;;;;;;;24.34;40.41;101586.16;6027614;28;20038;-66
2022/06/28 10:39:46;;;;;;;4.63;1.48;;;;;;;24.25;39.98;101577.41;6027898;28;20398;-66
2022/06/28 10:42:49;;;;;;;2.10;1.20;;;;;;;24.32;40.40;101571.16;6027449;28;20042;-66
2022/06/28 10:45:59;;;;;;;3.78;1.40;;;;;;;25.01;38.63;101576.63;6027479;28;20026;-66
2022/06/28 10:48:54;;;;;;;2.78;1.30;;;;;;;25.23;38.26;101575.19;6021808;28;20119;-66
2022/06/28 10:52:22;;;;;;;5.63;1.55;;;;;;;25.56;37.87;101564.91;6021388;28;20035;-66
2022/06/28 10:55:18;;;;;;;3.45;1.40;;;;;;;25.40;37.90;101558.13;6014356;28;20068;-66
2022/06/28 10:58:14;;;;;;;4.40;1.40;;;;;;;25.45;37.42;101568.31;6020793;28;20177;-66
2022/06/28 11:01:09;;;;;;;4.15;1.55;;;;;;;25.32;37.48;101569.28;6041149;28;20034;-66
2022/06/28 11:04:21;;;;;;;3.03;1.20;;;;;;;25.64;37.38;101556.47;6024665;28;21921;-66
2022/06/28 11:07:19;;;;;;;5.47;1.48;;;;;;;26.44;36.10;101551.81;6016647;28;20039;-66
2022/06/28 11:10:16;;;;;;;4.55;1.50;;;;;;;26.69;36.61;101549.75;6013761;28;20114;-66
2022/06/28 11:13:18;;;;;;;5.32;1.35;;;;;;;26.68;34.29;101544.56;6025314;28;20105;-66
2022/06/28 11:16:46;;;;;;;4.72;1.70;;;;;;;26.29;36.22;101546.75;6024252;28;20031;-66
2022/06/28 11:19:50;;;;;;;5.05;1.35;;;;;;;26.09;34.45;101531.72;6023647;28;20572;-65
2022/06/28 11:22:48;;;;;;;2.55;1.40;;;;;;;25.13;37.68;101528.72;6014339;28;20039;-66
2022/06/28 11:28:59;;;;;;;3.42;1.30;;;;;;;25.71;35.64;101526.53;6014376;28;20438;-67
2022/06/28 11:31:55;;;;;;;7.57;1.83;;;;;;;25.54;35.30;101530.88;6007806;28;20214;-66
2022/06/28 11:34:54;;;;;;;3.60;1.30;;;;;;;25.55;36.04;101535.25;6015816;28;20057;-66
2022/06/28 11:37:53;;;;;;;2.58;1.23;;;;;;;25.69;36.29;101534.88;6026945;28;20034;-66
2022/06/28 11:40:52;;;;;;;2.72;1.40;;;;;;;25.96;33.45;101522.66;6023327;28;20049;-66
2022/06/28 11:43:56;;;;;;;4.43;1.45;;;;;;;26.48;35.07;101514.91;6026006;28;20034;-66
2022/06/28 11:46:52;;;;;;;2.85;1.45;;;;;;;25.66;35.10;101513.59;6016969;28;20113;-66
2022/06/28 11:50:08;;;;;;;4.82;1.40;;;;;;;25.21;35.84;101509.41;6024921;28;20037;-66
2022/06/28 11:53:04;;;;;;;3.65;1.52;;;;;;;24.66;37.37;101517.31;6016737;28;20061;-65
2022/06/28 11:55:59;;;;;;;3.92;1.48;;;;;;;25.17;35.18;101519.06;6021428;28;20530;-66
2022/06/28 11:58:54;;;;;;;4.07;1.30;;;;;;;25.99;33.67;101511.34;6018830;28;20542;-67
2022/06/28 12:01:50;;;;;;;6.37;1.80;;;;;;;26.47;34.48;101497.75;6018366;28;20046;-66
2022/06/28 12:04:45;;;;;;;3.27;1.40;;;;;;;25.68;34.68;101508.78;6020455;28;20121;-66
2022/06/28 12:07:44;;;;;;;5.13;1.33;;;;;;;26.01;34.78;101498.34;6017580;28;20042;-66
2022/06/28 12:10:39;;;;;;;4.20;1.13;;;;;;;26.60;34.08;101496.72;6023071;28;20593;-66
2022/06/28 12:13:34;;;;;;;1.07;0.90;;;;;;;27.01;33.37;101499.47;6024283;28;20034;-66
2022/06/28 12:16:32;;;;;;;1.80;1.10;;;;;;;26.33;31.21;101490.00;6020483;28;20027;-66
2022/06/28 12:19:30;;;;;;;1.80;1.00;;;;;;;26.68;32.08;101498.28;6019593;28;20034;-66
2022/06/28 12:22:25;;;;;;;1.95;0.98;;;;;;;26.69;31.64;101503.47;6019893;28;20576;-66
2022/06/28 12:25:21;;;;;;;5.23;1.20;;;;;;;26.16;33.16;101499.88;6014336;28;20038;-65
2022/06/28 12:28:16;;;;;;;2.77;1.27;;;;;;;27.15;32.06;101489.97;6020718;28;20785;-66
2022/06/28 12:31:11;;;;;;;3.23;1.10;;;;;;;27.08;31.20;101478.38;6022983;28;20125;-66
2022/06/28 12:34:07;;;;;;;2.20;1.10;;;;;;;26.84;31.33;101490.31;6033383;28;20037;-67
2022/06/28 12:37:03;;;;;;;3.05;1.08;;;;;;;27.43;31.56;101481.13;6020676;28;20293;-66
2022/06/28 12:39:59;;;;;;;3.38;1.55;;;;;;;27.29;30.63;101484.31;6023169;28;20030;-66
2022/06/28 12:42:54;;;;;;;2.50;1.10;;;;;;;27.64;30.75;101471.53;6004793;28;20042;-66
2022/06/28 12:45:49;;;;;;;1.80;1.20;;;;;;;27.89;30.12;101465.75;6018591;28;20092;-66
2022/06/28 12:48:45;;;;;;;6.72;1.23;;;;;;;28.11;29.97;101473.06;6022779;28;20038;-66
2022/06/28 12:51:40;;;;;;;3.40;1.10;;;;;;;28.42;29.59;101468.19;6010387;28;20413;-66
2022/06/28 12:54:35;;;;;;;1.50;1.00;;;;;;;27.80;29.20;101462.59;6012317;28;20046;-66
2022/06/28 12:57:31;;;;;;;7.20;1.48;;;;;;;26.87;31.37;101468.06;6013438;28;20038;-66
2022/06/28 13:00:26;;;;;;;2.03;1.10;;;;;;;25.82;33.19;101469.50;6009624;28;20134;-65
2022/06/28 13:03:21;;;;;;;4.57;1.50;;;;;;;25.97;33.86;101464.50;6021184;28;20042;-66
2022/06/28 13:06:17;;;;;;;4.20;1.63;;;;;;;26.64;34.76;101454.38;6017500;28;20458;-66
2022/06/28 13:09:13;;;;;;;4.25;1.55;;;;;;;25.44;34.78;101455.28;6014857;28;20046;-66
2022/06/28 13:12:09;;;;;;;2.45;1.38;;;;;;;24.78;35.95;101442.31;6021526;28;20124;-67
2022/06/28 13:15:05;;;;;;;3.83;1.10;;;;;;;25.46;35.37;101431.44;6023582;28;20034;-66
2022/06/28 13:18:01;;;;;;;4.03;1.30;;;;;;;25.21;36.43;101438.81;6009481;28;20046;-66
2022/06/28 13:20:56;;;;;;;4.70;1.58;;;;;;;25.54;36.03;101431.19;6021169;28;20125;-65
2022/06/28 13:23:52;;;;;;;4.70;1.37;;;;;;;25.88;34.85;101427.81;6013178;28;20092;-66
2022/06/28 13:26:47;;;;;;;4.13;1.38;;;;;;;25.31;35.52;101436.41;6008836;28;20085;-66
2022/06/28 13:29:42;;;;;;;4.87;1.50;;;;;;;25.34;35.69;101419.66;6023436;28;20066;-66
2022/06/28 13:32:38;;;;;;;5.77;1.83;;;;;;;25.88;34.74;101406.06;6004777;28;20289;-66
2022/06/28 13:35:33;;;;;;;6.17;1.10;;;;;;;25.84;34.83;101415.75;6012105;28;20050;-65
2022/06/28 13:38:29;;;;;;;4.05;1.75;;;;;;;25.30;35.26;101404.91;6013031;28;20402;-66
2022/06/28 13:41:24;;;;;;;3.13;1.50;;;;;;;24.50;36.07;101406.66;6015384;28;20034;-66
2022/06/28 13:44:20;;;;;;;4.13;1.40;;;;;;;23.91;37.51;101411.59;6011833;28;20046;-66
2022/06/28 13:47:16;;;;;;;2.55;1.30;;;;;;;24.43;35.92;101403.16;6023527;28;20035;-66
2022/06/28 13:50:11;;;;;;;3.40;1.17;;;;;;;24.63;36.01;101392.97;6027607;28;20023;-66